WMSA/SZB METAR and TAF weather

Enter ICAO airport designator
Station Type Date Time Source
WMSA METAR 2019/04/21 22:00 UTC NOAA

WMSA 212200Z 00000KT 8000 FEW025 BKN280 27/26 Q1005


Station Type Date Time Source
WMSA Decoded METAR 2019/04/21 22:00 UTC NOAA

Subang/Sultan Abdul Aziz Shah Airport, Malaysia (WMSA) 03-07N 101-32E
Apr 21, 2019 - 06:00 PM EDT / 2019.04.21 2200 UTC
Wind: Calm:0
Visibility: 4 mile(s):0
Sky conditions: mostly cloudy
Temperature: 80 F (27 C)
Dew Point: 78 F (26 C)
Relative Humidity: 94%
Pressure (altimeter): 29.68 in. Hg (1005 hPa)
ob: WMSA 212200Z 00000KT 8000 FEW025 BKN280 27/26 Q1005
cycle: 22

Station Type Date Time Source
WMSA TAF 2019/04/21 18:12 UTC NOAA

TAF WMSA 211700Z 2118/2218 VRB02KT 9000 FEW025
BECMG 2121/2123 6000 FEW010
BECMG 2202/2203 9999 FEW019
TEMPO 2208/2212 24007KT 4000 TSRA FEW010 FEW016CB SCT020
BECMG 2213/2215 VRB03KT FEW024

Example: see airport list